sensor_id;sensor_type;location;lat;lon;timestamp;pressure;altitude;pressure_sealevel;temperature;humidity
39823;BME280;25499;53.958;10.970;2023-07-22T10:33:00;101022.63;;;17.43;78.24
39823;BME280;25499;53.958;10.970;2023-07-22T10:35:37;101037.06;;;17.61;80.66
39823;BME280;25499;53.958;10.970;2023-07-22T10:38:07;101046.34;;;17.74;82.00
39823;BME280;25499;53.958;10.970;2023-07-22T10:40:44;101058.25;;;17.56;83.60
39823;BME280;25499;53.958;10.970;2023-07-22T10:43:12;101067.16;;;17.52;88.80
39823;BME280;25499;53.958;10.970;2023-07-22T10:45:48;101060.50;;;17.04;88.50
39823;BME280;25499;53.958;10.970;2023-07-22T10:48:19;101049.19;;;17.01;87.98
39823;BME280;25499;53.958;10.970;2023-07-22T10:50:47;101042.63;;;16.81;87.24
39823;BME280;25499;53.958;10.970;2023-07-22T10:53:20;101042.59;;;17.19;86.29
39823;BME280;25499;53.958;10.970;2023-07-22T10:56:13;101018.53;;;18.53;82.46
39823;BME280;25499;53.958;10.970;2023-07-22T10:58:59;100978.38;;;19.49;76.21
39823;BME280;25499;53.958;10.970;2023-07-22T11:01:36;100923.00;;;19.93;69.61
39823;BME280;25499;53.958;10.970;2023-07-22T11:04:23;100920.88;;;18.83;69.09
39823;BME280;25499;53.958;10.970;2023-07-22T11:07:07;100950.56;;;18.61;70.95
39823;BME280;25499;53.958;10.970;2023-07-22T11:09:40;100983.88;;;18.09;74.35
39823;BME280;25499;53.958;10.970;2023-07-22T11:12:12;101016.63;;;17.70;78.29
39823;BME280;25499;53.958;10.970;2023-07-22T11:14:45;101043.84;;;17.38;82.51
39823;BME280;25499;53.958;10.970;2023-07-22T11:17:12;101069.69;;;17.22;88.94
39823;BME280;25499;53.958;10.970;2023-07-22T11:19:41;101065.75;;;16.67;92.74
39823;BME280;25499;53.958;10.970;2023-07-22T11:22:07;101073.50;;;16.71;97.58
39823;BME280;25499;53.958;10.970;2023-07-22T11:24:36;101068.88;;;16.84;99.84
39823;BME280;25499;53.958;10.970;2023-07-22T11:27:04;101067.25;;;17.14;100.00
39823;BME280;25499;53.958;10.970;2023-07-22T11:29:32;101057.13;;;18.27;100.00
39823;BME280;25499;53.958;10.970;2023-07-22T11:31:59;101041.59;;;18.75;96.85
39823;BME280;25499;53.958;10.970;2023-07-22T11:34:26;101014.44;;;19.73;90.01
39823;BME280;25499;53.958;10.970;2023-07-22T11:36:55;100988.16;;;20.60;84.07
39823;BME280;25499;53.958;10.970;2023-07-22T11:39:24;100927.72;;;20.51;76.30
39823;BME280;25499;53.958;10.970;2023-07-22T11:41:52;100932.94;;;20.53;76.03
39823;BME280;25499;53.958;10.970;2023-07-22T11:44:20;100945.94;;;21.20;75.71
39823;BME280;25499;53.958;10.970;2023-07-22T11:46:51;100921.53;;;21.53;72.48
39823;BME280;25499;53.958;10.970;2023-07-22T11:49:26;100900.91;;;20.81;70.93
39823;BME280;25499;53.958;10.970;2023-07-22T11:51:58;100906.47;;;21.14;70.41
39823;BME280;25499;53.958;10.970;2023-07-22T11:54:25;100909.22;;;20.92;70.12
39823;BME280;25499;53.958;10.970;2023-07-22T11:56:53;100871.97;;;20.35;68.75
39823;BME280;25499;53.958;10.970;2023-07-22T11:59:33;100913.78;;;20.25;71.46
39823;BME280;25499;53.958;10.970;2023-07-22T12:02:00;100915.59;;;20.25;70.79
39823;BME280;25499;53.958;10.970;2023-07-22T12:04:27;100889.16;;;20.45;70.49
39823;BME280;25499;53.958;10.970;2023-07-22T12:06:54;100880.50;;;21.03;68.58
39823;BME280;25499;53.958;10.970;2023-07-22T12:09:22;100857.38;;;21.07;66.79
39823;BME280;25499;53.958;10.970;2023-07-22T12:11:55;100883.25;;;21.21;66.88
39823;BME280;25499;53.958;10.970;2023-07-22T12:14:23;100871.41;;;21.09;67.21
39823;BME280;25499;53.958;10.970;2023-07-22T12:16:55;100851.69;;;20.77;66.02
39823;BME280;25499;53.958;10.970;2023-07-22T12:19:23;100887.59;;;21.61;66.60
39823;BME280;25499;53.958;10.970;2023-07-22T12:21:49;100855.19;;;21.74;64.54
39823;BME280;25499;53.958;10.970;2023-07-22T12:24:16;100838.72;;;21.86;63.15
39823;BME280;25499;53.958;10.970;2023-07-22T12:26:44;100841.00;;;22.64;62.54
39823;BME280;25499;53.958;10.970;2023-07-22T12:29:11;100829.31;;;22.50;61.85
39823;BME280;25499;53.958;10.970;2023-07-22T12:31:38;100855.81;;;22.85;62.71
39823;BME280;25499;53.958;10.970;2023-07-22T12:34:04;100806.28;;;22.16;60.93
39823;BME280;25499;53.958;10.970;2023-07-22T12:36:31;100832.25;;;21.92;61.38
39823;BME280;25499;53.958;10.970;2023-07-22T12:38:58;100812.75;;;21.37;62.03
39823;BME280;25499;53.958;10.970;2023-07-22T12:41:24;100829.75;;;21.52;61.76
39823;BME280;25499;53.958;10.970;2023-07-22T12:43:52;100835.03;;;21.52;61.95
39823;BME280;25499;53.958;10.970;2023-07-22T12:46:19;100851.81;;;21.70;62.35
39823;BME280;25499;53.958;10.970;2023-07-22T12:48:46;100824.75;;;21.83;61.11
39823;BME280;25499;53.958;10.970;2023-07-22T12:51:13;100824.63;;;21.29;61.12
39823;BME280;25499;53.958;10.970;2023-07-22T12:53:39;100816.72;;;20.89;60.99
39823;BME280;25499;53.958;10.970;2023-07-22T12:56:06;100833.03;;;20.80;62.18
39823;BME280;25499;53.958;10.970;2023-07-22T12:58:33;100794.59;;;20.50;60.57
39823;BME280;25499;53.958;10.970;2023-07-22T13:01:01;100835.31;;;20.46;61.81
39823;BME280;25499;53.958;10.970;2023-07-22T13:03:28;100840.28;;;20.54;62.55
39823;BME280;25499;53.958;10.970;2023-07-22T13:05:54;100855.09;;;20.38;63.74
39823;BME280;25499;53.958;10.970;2023-07-22T13:08:21;100866.25;;;20.66;63.73
39823;BME280;25499;53.958;10.970;2023-07-22T13:10:48;100925.59;;;19.94;68.19
39823;BME280;25499;53.958;10.970;2023-07-22T13:13:14;100961.47;;;19.78;71.68
39823;BME280;25499;53.958;10.970;2023-07-22T13:15:41;100965.91;;;19.52;74.33
39823;BME280;25499;53.958;10.970;2023-07-22T13:18:09;100970.72;;;19.41;76.86
39823;BME280;25499;53.958;10.970;2023-07-22T13:20:38;100974.34;;;19.38;77.21
39823;BME280;25499;53.958;10.970;2023-07-22T13:23:05;100961.69;;;19.23;77.05
39823;BME280;25499;53.958;10.970;2023-07-22T13:25:33;100958.81;;;19.29;76.30
39823;BME280;25499;53.958;10.970;2023-07-22T13:28:00;100939.41;;;19.07;76.33
39823;BME280;25499;53.958;10.970;2023-07-22T13:30:27;100926.09;;;19.10;74.35
39823;BME280;25499;53.958;10.970;2023-07-22T13:32:53;100959.16;;;19.20;76.88
39823;BME280;25499;53.958;10.970;2023-07-22T13:35:23;100926.94;;;19.35;75.29
39823;BME280;25499;53.958;10.970;2023-07-22T13:37:49;100943.69;;;19.58;74.95
39823;BME280;25499;53.958;10.970;2023-07-22T13:40:17;100925.53;;;19.72;74.07
39823;BME280;25499;53.958;10.970;2023-07-22T13:42:45;100918.34;;;19.78;74.19
39823;BME280;25499;53.958;10.970;2023-07-22T13:45:12;100915.25;;;19.88;73.00
39823;BME280;25499;53.958;10.970;2023-07-22T13:47:38;100903.97;;;20.07;72.16
39823;BME280;25499;53.958;10.970;2023-07-22T13:50:05;100895.41;;;20.00;71.28
39823;BME280;25499;53.958;10.970;2023-07-22T13:52:34;100914.22;;;20.15;72.03
39823;BME280;25499;53.958;10.970;2023-07-22T13:55:01;100889.81;;;20.08;71.05
39823;BME280;25499;53.958;10.970;2023-07-22T13:57:28;100875.56;;;19.90;69.70
39823;BME280;25499;53.958;10.970;2023-07-22T13:59:55;100876.41;;;19.90;70.60
39823;BME280;25499;53.958;10.970;2023-07-22T14:02:21;100860.41;;;19.71;68.95
39823;BME280;25499;53.958;10.970;2023-07-22T14:04:48;100868.56;;;19.65;69.02
39823;BME280;25499;53.958;10.970;2023-07-22T14:07:15;100873.53;;;19.51;69.47
39823;BME280;25499;53.958;10.970;2023-07-22T14:09:44;100903.63;;;19.47;71.45
39823;BME280;25499;53.958;10.970;2023-07-22T14:12:10;100909.59;;;19.28;71.13
39823;BME280;25499;53.958;10.970;2023-07-22T14:14:37;100873.19;;;18.89;70.87
39823;BME280;25499;53.958;10.970;2023-07-22T14:17:04;100895.28;;;18.85;70.66
39823;BME280;25499;53.958;10.970;2023-07-22T14:19:31;100929.56;;;18.58;74.56
39823;BME280;25499;53.958;10.970;2023-07-22T14:21:58;100936.16;;;18.47;74.35
39823;BME280;25499;53.958;10.970;2023-07-22T14:24:25;100933.53;;;18.47;75.26
39823;BME280;25499;53.958;10.970;2023-07-22T14:26:54;100954.91;;;18.37;76.67
39823;BME280;25499;53.958;10.970;2023-07-22T14:29:20;100965.13;;;18.20;77.55
39823;BME280;25499;53.958;10.970;2023-07-22T14:31:47;100981.38;;;18.06;79.14
39823;BME280;25499;53.958;10.970;2023-07-22T14:34:14;100990.03;;;17.78;82.41
39823;BME280;25499;53.958;10.970;2023-07-22T14:36:41;101020.38;;;17.62;86.38
39823;BME280;25499;53.958;10.970;2023-07-22T14:39:09;101023.72;;;17.36;88.10
39823;BME280;25499;53.958;10.970;2023-07-22T14:41:37;101025.63;;;16.96;91.11
39823;BME280;25499;53.958;10.970;2023-07-22T14:44:05;101031.59;;;17.03;94.10
39823;BME280;25499;53.958;10.970;2023-07-22T14:46:32;101024.59;;;17.02;94.18
39823;BME280;25499;53.958;10.970;2023-07-22T14:48:58;101030.31;;;16.82;95.95
39823;BME280;25499;53.958;10.970;2023-07-22T14:51:38;101039.91;;;16.86;99.87
39823;BME280;25499;53.958;10.970;2023-07-22T14:54:05;101029.47;;;16.81;100.00
39823;BME280;25499;53.958;10.970;2023-07-22T14:56:32;101027.34;;;16.97;100.00
39823;BME280;25499;53.958;10.970;2023-07-22T14:58:58;101020.72;;;17.17;100.00
39823;BME280;25499;53.958;10.970;2023-07-22T15:01:25;101011.72;;;17.25;100.00
39823;BME280;25499;53.958;10.970;2023-07-22T15:03:52;101005.94;;;17.44;100.00
39823;BME280;25499;53.958;10.970;2023-07-22T15:06:21;100989.63;;;17.31;97.20
39823;BME280;25499;53.958;10.970;2023-07-22T15:08:49;100996.47;;;17.38;98.92
39823;BME280;25499;53.958;10.970;2023-07-22T15:11:16;101001.88;;;17.32;98.23
39823;BME280;25499;53.958;10.970;2023-07-22T15:13:43;100987.88;;;17.31;98.48
39823;BME280;25499;53.958;10.970;2023-07-22T15:16:10;100991.16;;;17.40;96.82
39823;BME280;25499;53.958;10.970;2023-07-22T15:18:37;100986.94;;;17.32;96.84
39823;BME280;25499;53.958;10.970;2023-07-22T15:21:03;100996.69;;;17.29;98.74
39823;BME280;25499;53.958;10.970;2023-07-22T15:23:30;100981.69;;;17.32;96.79
39823;BME280;25499;53.958;10.970;2023-07-22T15:25:58;100987.56;;;17.42;96.74
39823;BME280;25499;53.958;10.970;2023-07-22T15:28:25;100975.69;;;17.27;93.97
39823;BME280;25499;53.958;10.970;2023-07-22T15:30:53;100966.78;;;17.33;93.58
39823;BME280;25499;53.958;10.970;2023-07-22T15:33:19;100978.19;;;17.32;93.63
39823;BME280;25499;53.958;10.970;2023-07-22T15:35:47;100976.22;;;17.40;93.12
39823;BME280;25499;53.958;10.970;2023-07-22T15:38:13;100971.84;;;17.39;92.01
39823;BME280;25499;53.958;10.970;2023-07-22T15:40:41;100989.31;;;17.43;95.64
39823;BME280;25499;53.958;10.970;2023-07-22T15:43:09;100990.97;;;17.46;96.58
39823;BME280;25499;53.958;10.970;2023-07-22T15:45:36;100994.56;;;17.43;98.62
39823;BME280;25499;53.958;10.970;2023-07-22T15:48:03;100994.41;;;17.48;98.96
39823;BME280;25499;53.958;10.970;2023-07-22T15:50:31;100990.50;;;17.31;99.90
39823;BME280;25499;53.958;10.970;2023-07-22T15:52:58;100998.66;;;17.21;100.00
39823;BME280;25499;53.958;10.970;2023-07-22T15:55:26;100996.88;;;17.23;100.00
39823;BME280;25499;53.958;10.970;2023-07-22T15:57:53;100986.63;;;17.12;100.00
39823;BME280;25499;53.958;10.970;2023-07-22T16:00:21;100992.66;;;17.15;100.00
39823;BME280;25499;53.958;10.970;2023-07-22T16:02:48;100992.19;;;17.01;100.00
39823;BME280;25499;53.958;10.970;2023-07-22T16:05:15;100991.38;;;16.99;100.00
39823;BME280;25499;53.958;10.970;2023-07-22T16:07:41;100994.06;;;16.96;100.00
39823;BME280;25499;53.958;10.970;2023-07-22T16:10:09;100989.97;;;16.83;100.00
39823;BME280;25499;53.958;10.970;2023-07-22T16:12:36;100995.19;;;16.86;100.00
39823;BME280;25499;53.958;10.970;2023-07-22T16:15:03;100996.03;;;16.88;100.00
39823;BME280;25499;53.958;10.970;2023-07-22T16:17:32;100993.47;;;16.83;100.00
39823;BME280;25499;53.958;10.970;2023-07-22T16:19:59;100998.75;;;16.82;100.00
39823;BME280;25499;53.958;10.970;2023-07-22T16:22:25;101003.03;;;16.89;100.00
39823;BME280;25499;53.958;10.970;2023-07-22T16:24:52;101000.50;;;16.83;100.00
39823;BME280;25499;53.958;10.970;2023-07-22T16:27:19;100991.78;;;16.81;100.00
39823;BME280;25499;53.958;10.970;2023-07-22T16:29:46;100998.13;;;16.73;100.00
39823;BME280;25499;53.958;10.970;2023-07-22T16:32:12;101005.75;;;16.83;100.00
39823;BME280;25499;53.958;10.970;2023-07-22T16:34:40;101002.47;;;16.74;100.00
39823;BME280;25499;53.958;10.970;2023-07-22T16:37:07;100999.84;;;16.73;100.00
39823;BME280;25499;53.958;10.970;2023-07-22T16:39:34;101005.22;;;16.68;100.00
39823;BME280;25499;53.958;10.970;2023-07-22T16:42:01;101015.75;;;16.68;100.00
39823;BME280;25499;53.958;10.970;2023-07-22T16:44:27;101005.47;;;16.59;100.00
39823;BME280;25499;53.958;10.970;2023-07-22T16:46:54;101000.03;;;16.67;100.00
39823;BME280;25499;53.958;10.970;2023-07-22T16:49:21;101000.28;;;16.56;100.00
39823;BME280;25499;53.958;10.970;2023-07-22T16:51:49;100991.56;;;16.54;100.00
39823;BME280;25499;53.958;10.970;2023-07-22T16:54:15;100989.16;;;16.45;100.00
39823;BME280;25499;53.958;10.970;2023-07-22T16:56:42;100977.75;;;16.46;100.00
39823;BME280;25499;53.958;10.970;2023-07-22T16:59:09;100980.44;;;16.42;100.00
39823;BME280;25499;53.958;10.970;2023-07-22T17:01:35;100977.84;;;16.41;100.00
39823;BME280;25499;53.958;10.970;2023-07-22T17:04:04;100973.53;;;16.38;100.00
39823;BME280;25499;53.958;10.970;2023-07-22T17:06:33;100984.09;;;16.37;100.00
39823;BME280;25499;53.958;10.970;2023-07-22T17:09:01;100985.91;;;16.33;100.00
39823;BME280;25499;53.958;10.970;2023-07-22T17:11:27;100986.97;;;16.26;100.00
39823;BME280;25499;53.958;10.970;2023-07-22T17:13:55;100986.88;;;16.29;100.00
39823;BME280;25499;53.958;10.970;2023-07-22T17:16:22;100985.19;;;16.27;100.00
39823;BME280;25499;53.958;10.970;2023-07-22T17:18:49;100977.44;;;16.20;100.00
39823;BME280;25499;53.958;10.970;2023-07-22T17:21:15;100972.19;;;16.20;100.00
39823;BME280;25499;53.958;10.970;2023-07-22T17:23:42;100974.94;;;16.16;100.00
39823;BME280;25499;53.958;10.970;2023-07-22T17:26:10;100973.34;;;16.09;100.00
39823;BME280;25499;53.958;10.970;2023-07-22T17:28:37;100978.50;;;16.13;100.00
39823;BME280;25499;53.958;10.970;2023-07-22T17:31:05;100981.25;;;16.07;100.00
39823;BME280;25499;53.958;10.970;2023-07-22T17:33:32;100985.81;;;16.00;100.00
39823;BME280;25499;53.958;10.970;2023-07-22T17:36:02;100984.09;;;15.98;100.00
39823;BME280;25499;53.958;10.970;2023-07-22T17:38:29;100979.06;;;15.87;100.00
39823;BME280;25499;53.958;10.970;2023-07-22T17:40:56;100989.59;;;15.87;100.00
39823;BME280;25499;53.958;10.970;2023-07-22T17:43:24;100983.59;;;15.80;100.00
39823;BME280;25499;53.958;10.970;2023-07-22T17:45:51;100968.75;;;15.78;100.00
39823;BME280;25499;53.958;10.970;2023-07-22T17:48:18;100967.84;;;15.80;100.00
39823;BME280;25499;53.958;10.970;2023-07-22T17:50:46;100965.25;;;15.79;100.00
39823;BME280;25499;53.958;10.970;2023-07-22T17:53:13;100961.78;;;15.77;100.00
39823;BME280;25499;53.958;10.970;2023-07-22T17:55:40;100959.19;;;15.74;100.00
39823;BME280;25499;53.958;10.970;2023-07-22T17:58:06;100962.75;;;15.70;100.00
39823;BME280;25499;53.958;10.970;2023-07-22T18:00:34;100969.69;;;15.74;100.00
39823;BME280;25499;53.958;10.970;2023-07-22T18:03:01;100965.53;;;15.63;100.00
39823;BME280;25499;53.958;10.970;2023-07-22T18:05:28;100973.34;;;15.66;100.00
39823;BME280;25499;53.958;10.970;2023-07-22T18:07:55;100969.09;;;15.59;100.00
39823;BME280;25499;53.958;10.970;2023-07-22T18:10:22;100965.66;;;15.57;100.00
39823;BME280;25499;53.958;10.970;2023-07-22T18:12:49;100967.50;;;15.52;100.00
39823;BME280;25499;53.958;10.970;2023-07-22T18:15:15;100966.53;;;15.56;100.00
39823;BME280;25499;53.958;10.970;2023-07-22T18:17:43;100965.00;;;15.46;100.00
39823;BME280;25499;53.958;10.970;2023-07-22T18:20:11;100962.47;;;15.43;100.00
39823;BME280;25499;53.958;10.970;2023-07-22T18:22:38;100958.19;;;15.37;100.00
39823;BME280;25499;53.958;10.970;2023-07-22T18:25:05;100967.06;;;15.30;100.00
39823;BME280;25499;53.958;10.970;2023-07-22T18:27:32;100961.84;;;15.28;100.00
39823;BME280;25499;53.958;10.970;2023-07-22T18:29:58;100965.25;;;15.34;100.00
39823;BME280;25499;53.958;10.970;2023-07-22T18:32:25;100950.56;;;15.23;100.00
39823;BME280;25499;53.958;10.970;2023-07-22T18:34:55;100951.09;;;15.41;100.00
39823;BME280;25499;53.958;10.970;2023-07-22T18:37:24;100949.41;;;15.40;100.00
39823;BME280;25499;53.958;10.970;2023-07-22T18:39:51;100953.03;;;15.33;100.00
39823;BME280;25499;53.958;10.970;2023-07-22T18:42:17;100951.25;;;15.35;100.00
39823;BME280;25499;53.958;10.970;2023-07-22T18:44:44;100955.91;;;15.19;100.00
39823;BME280;25499;53.958;10.970;2023-07-22T18:47:11;100945.53;;;15.14;100.00
39823;BME280;25499;53.958;10.970;2023-07-22T18:49:37;100948.94;;;15.18;100.00
39823;BME280;25499;53.958;10.970;2023-07-22T18:52:06;100946.47;;;15.08;100.00
39823;BME280;25499;53.958;10.970;2023-07-22T18:54:33;100950.75;;;15.16;100.00
39823;BME280;25499;53.958;10.970;2023-07-22T18:57:00;100946.28;;;15.21;100.00
39823;BME280;25499;53.958;10.970;2023-07-22T18:59:27;100953.38;;;15.14;100.00
39823;BME280;25499;53.958;10.970;2023-07-22T19:01:53;100948.16;;;15.13;100.00
39823;BME280;25499;53.958;10.970;2023-07-22T19:04:20;100953.38;;;15.14;100.00
39823;BME280;25499;53.958;10.970;2023-07-22T19:06:47;100957.53;;;15.26;100.00
39823;BME280;25499;53.958;10.970;2023-07-22T19:09:18;100955.94;;;15.17;100.00
39823;BME280;25499;53.958;10.970;2023-07-22T19:11:45;100957.06;;;15.04;100.00
39823;BME280;25499;53.958;10.970;2023-07-22T19:14:11;100965.63;;;15.14;100.00
39823;BME280;25499;53.958;10.970;2023-07-22T19:16:38;100960.53;;;15.06;100.00
39823;BME280;25499;53.958;10.970;2023-07-22T19:19:05;100962.25;;;15.07;100.00
39823;BME280;25499;53.958;10.970;2023-07-22T19:21:32;100972.78;;;15.05;100.00
39823;BME280;25499;53.958;10.970;2023-07-22T19:23:58;100963.28;;;14.98;100.00
39823;BME280;25499;53.958;10.970;2023-07-22T19:26:27;100962.41;;;14.99;100.00
39823;BME280;25499;53.958;10.970;2023-07-22T19:28:54;100971.28;;;14.92;100.00
39823;BME280;25499;53.958;10.970;2023-07-22T19:31:21;100962.66;;;14.85;100.00
39823;BME280;25499;53.958;10.970;2023-07-22T19:33:47;100969.72;;;14.80;100.00
39823;BME280;25499;53.958;10.970;2023-07-22T19:36:14;100971.44;;;14.81;100.00
39823;BME280;25499;53.958;10.970;2023-07-22T19:38:41;100970.75;;;14.71;100.00
39823;BME280;25499;53.958;10.970;2023-07-22T19:41:09;100976.81;;;14.75;100.00
39823;BME280;25499;53.958;10.970;2023-07-22T19:43:39;100970.66;;;14.76;100.00
39823;BME280;25499;53.958;10.970;2023-07-22T19:46:09;100970.69;;;14.74;100.00
39823;BME280;25499;53.958;10.970;2023-07-22T19:48:36;100974.28;;;14.69;100.00
39823;BME280;25499;53.958;10.970;2023-07-22T19:51:03;100976.06;;;14.67;100.00
39823;BME280;25499;53.958;10.970;2023-07-22T19:53:32;100971.75;;;14.63;100.00
39823;BME280;25499;53.958;10.970;2023-07-22T19:56:00;100969.88;;;14.71;100.00
39823;BME280;25499;53.958;10.970;2023-07-22T19:58:27;100974.38;;;14.63;100.00
39823;BME280;25499;53.958;10.970;2023-07-22T20:00:56;100963.06;;;14.58;100.00
39823;BME280;25499;53.958;10.970;2023-07-22T20:03:25;100964.78;;;14.62;100.00
39823;BME280;25499;53.958;10.970;2023-07-22T20:05:52;100967.47;;;14.55;100.00
39823;BME280;25499;53.958;10.970;2023-07-22T20:08:19;100964.78;;;14.62;100.00
39823;BME280;25499;53.958;10.970;2023-07-22T20:10:47;100959.59;;;14.55;100.00
39823;BME280;25499;53.958;10.970;2023-07-22T20:13:14;100957.78;;;14.62;100.00
39823;BME280;25499;53.958;10.970;2023-07-22T20:15:40;100956.09;;;14.57;100.00
39823;BME280;25499;53.958;10.970;2023-07-22T20:18:09;100956.19;;;14.52;100.00
39823;BME280;25499;53.958;10.970;2023-07-22T20:20:35;100950.03;;;14.54;100.00
39823;BME280;25499;53.958;10.970;2023-07-22T20:23:02;100958.88;;;14.46;100.00
